Ashland, Texas
Current Conditions -  °F | °C
As of 2:53 AM on Saturday 25 Oct 2014 (Local Time) from KGGG Reporting Station
Clear Clear  
Wind Chill: 15°   Ceiling: Unl
Heat Index: 15°   Visibility: 10mi
Dew Point: 13°   Wind: 5mph
Humidity: 87%   Direction: 180°S
Pressure: 30.12"   Gusts: NA
Location:  32.6998°N, 94.6696°W
Report Text: KGGG 250753Z AUTO 18004KT 10SM CLR 15/13 A3012 RMK AO2 SLP195 T01500128
Loading
Personal Weather Stations






























Interactive Weather Map
Tropical Storm Tracking
New forecast layout! Learn more

10-Day Weather Forecast

Advertisements
Track Severe Weather on mobile